createdAt,value
2018-12-01T00:08:27.704Z,8.60
2018-12-01T00:29:05.134Z,7.93
2018-12-01T00:49:46.443Z,8.50
2018-12-01T01:10:24.695Z,8.07
2018-12-01T01:31:03.949Z,8.10
2018-12-01T01:51:45.883Z,7.23
2018-12-01T02:12:22.476Z,6.70
2018-12-01T02:32:56.628Z,6.20
2018-12-01T02:53:34.867Z,6.33
2018-12-01T03:14:09.211Z,6.93
2018-12-01T03:34:46.029Z,7.03
2018-12-01T03:55:36.557Z,7.40
2018-12-01T04:16:11.935Z,7.47
2018-12-01T04:36:50.171Z,8.60
2018-12-01T04:57:26.366Z,7.40
2018-12-01T05:18:09.526Z,7.07
2018-12-01T05:38:51.047Z,5.33
2018-12-01T05:59:26.011Z,7.67
2018-12-01T06:20:04.668Z,8.30
2018-12-01T06:40:41.674Z,10.80
2018-12-01T07:01:19.096Z,14.10
2018-12-01T07:21:57.337Z,13.80
2018-12-01T07:42:34.352Z,11.23
2018-12-01T08:03:16.688Z,11.20
2018-12-01T08:23:52.201Z,8.07
2018-12-01T08:44:27.026Z,8.07
2018-12-01T09:05:06.704Z,6.80
2018-12-01T09:25:41.874Z,5.60
2018-12-01T09:46:18.071Z,6.77
2018-12-01T10:06:55.083Z,7.60
2018-12-01T10:27:30.649Z,6.50
2018-12-01T10:48:06.652Z,5.00
2018-12-01T11:08:46.117Z,4.77
2018-12-01T11:29:22.312Z,2.80
2018-12-01T11:49:58.502Z,2.20
2018-12-01T12:10:34.888Z,3.10
2018-12-01T12:31:12.125Z,2.03
2018-12-01T12:51:50.362Z,2.50
2018-12-01T13:12:26.571Z,2.40
2018-12-01T13:33:05.622Z,2.50
2018-12-01T13:53:45.088Z,4.50
2018-12-01T14:14:21.418Z,3.13
2018-12-01T14:34:55.639Z,2.23
2018-12-01T14:55:34.494Z,2.40
2018-12-01T15:16:13.145Z,2.67
2018-12-01T15:36:51.381Z,3.27
2018-12-01T15:57:34.537Z,2.90
2018-12-01T16:18:11.956Z,3.20
2018-12-01T16:38:50.209Z,3.30
2018-12-01T16:59:25.167Z,3.57
2018-12-01T17:20:02.591Z,2.80
2018-12-01T17:41:29.165Z,2.83
2018-12-01T18:02:08.635Z,2.80
2018-12-01T18:22:46.881Z,3.17
2018-12-01T18:43:27.985Z,3.47
2018-12-01T19:04:07.459Z,2.97
2018-12-01T19:24:43.800Z,3.40
2018-12-01T19:45:23.945Z,3.33
2018-12-01T20:05:59.315Z,3.07
2018-12-01T20:26:39.199Z,3.30
2018-12-01T20:47:17.439Z,3.10
2018-12-01T21:08:02.311Z,2.60
2018-12-01T21:28:37.196Z,2.50
2018-12-01T21:49:15.443Z,1.80
2018-12-01T22:09:54.910Z,1.67
2018-12-01T22:30:29.066Z,1.20
2018-12-01T22:51:07.992Z,3.80
2018-12-01T23:11:43.493Z,1.70
2018-12-01T23:32:18.467Z,1.80
2018-12-01T23:53:06.121Z,1.27
